Terminal Aerodrome Forecast
Issued by NWS

Home | Current Version | Previous Version | Text Only | Print | Product List | Glossary On
Versions: 1 2 3 4 5 6 7 8 9 10 11 12 13 14 15 16 17 18 19 20
000
FTUS43 KGRR 040525
TAFMKG
TAF
KMKG 040525Z 0406/0506 28003KT P6SM BKN080
     FM041600 27011KT P6SM BKN080
     FM042200 24004KT P6SM BKN080
     FM050300 VRB03KT P6SM BKN040=

USA.gov is the U.S. government's official web portal to all federal, state and local government web resources and services.